sensor_id;sensor_type;location;lat;lon;timestamp;temperature;humidity
24800;DHT22;12897;50.812;4.430;2022-12-07T00:01:33;7.00;99.90
24800;DHT22;12897;50.812;4.430;2022-12-07T00:04:02;6.90;99.90
24800;DHT22;12897;50.812;4.430;2022-12-07T00:06:33;6.80;99.90
24800;DHT22;12897;50.812;4.430;2022-12-07T00:09:01;6.80;99.90
24800;DHT22;12897;50.812;4.430;2022-12-07T00:11:29;6.80;99.90
24800;DHT22;12897;50.812;4.430;2022-12-07T00:13:59;6.70;99.90
24800;DHT22;12897;50.812;4.430;2022-12-07T00:16:30;6.80;99.90
24800;DHT22;12897;50.812;4.430;2022-12-07T00:18:58;6.70;99.90
24800;DHT22;12897;50.812;4.430;2022-12-07T00:21:28;6.70;99.90
24800;DHT22;12897;50.812;4.430;2022-12-07T00:23:57;6.50;99.90
24800;DHT22;12897;50.812;4.430;2022-12-07T00:26:34;6.50;99.90
24800;DHT22;12897;50.812;4.430;2022-12-07T00:29:00;6.50;99.90
24800;DHT22;12897;50.812;4.430;2022-12-07T00:31:31;6.40;99.90
24800;DHT22;12897;50.812;4.430;2022-12-07T00:33:59;6.20;99.90
24800;DHT22;12897;50.812;4.430;2022-12-07T00:36:27;6.10;99.90
24800;DHT22;12897;50.812;4.430;2022-12-07T00:38:57;6.10;99.90
24800;DHT22;12897;50.812;4.430;2022-12-07T00:41:26;6.10;99.90
24800;DHT22;12897;50.812;4.430;2022-12-07T00:43:54;6.10;99.90
24800;DHT22;12897;50.812;4.430;2022-12-07T00:46:22;6.20;99.90
24800;DHT22;12897;50.812;4.430;2022-12-07T00:48:51;6.20;99.90
24800;DHT22;12897;50.812;4.430;2022-12-07T00:51:21;6.40;99.90
24800;DHT22;12897;50.812;4.430;2022-12-07T00:53:49;6.30;99.90
24800;DHT22;12897;50.812;4.430;2022-12-07T00:56:22;6.20;99.90
24800;DHT22;12897;50.812;4.430;2022-12-07T00:58:55;6.30;99.90
24800;DHT22;12897;50.812;4.430;2022-12-07T01:01:21;6.30;99.90
24800;DHT22;12897;50.812;4.430;2022-12-07T01:03:49;6.30;99.90
24800;DHT22;12897;50.812;4.430;2022-12-07T01:06:18;6.30;99.90
24800;DHT22;12897;50.812;4.430;2022-12-07T01:08:46;6.30;99.90
24800;DHT22;12897;50.812;4.430;2022-12-07T01:11:16;6.20;99.90
24800;DHT22;12897;50.812;4.430;2022-12-07T01:13:45;6.30;99.90
24800;DHT22;12897;50.812;4.430;2022-12-07T01:16:14;6.30;99.90
24800;DHT22;12897;50.812;4.430;2022-12-07T01:18:43;6.20;99.90
24800;DHT22;12897;50.812;4.430;2022-12-07T01:21:13;6.30;99.90
24800;DHT22;12897;50.812;4.430;2022-12-07T01:23:42;6.30;99.90
24800;DHT22;12897;50.812;4.430;2022-12-07T01:26:12;6.30;99.90
24800;DHT22;12897;50.812;4.430;2022-12-07T01:28:40;6.20;99.90
24800;DHT22;12897;50.812;4.430;2022-12-07T01:31:15;6.40;99.90
24800;DHT22;12897;50.812;4.430;2022-12-07T01:33:39;6.50;99.90
24800;DHT22;12897;50.812;4.430;2022-12-07T01:36:21;6.40;99.90
24800;DHT22;12897;50.812;4.430;2022-12-07T01:38:51;6.30;99.90
24800;DHT22;12897;50.812;4.430;2022-12-07T01:41:20;6.30;99.90
24800;DHT22;12897;50.812;4.430;2022-12-07T01:44:10;6.30;99.90
24800;DHT22;12897;50.812;4.430;2022-12-07T01:46:37;6.30;99.90
24800;DHT22;12897;50.812;4.430;2022-12-07T01:49:08;6.30;99.90
24800;DHT22;12897;50.812;4.430;2022-12-07T01:51:37;6.40;99.90
24800;DHT22;12897;50.812;4.430;2022-12-07T01:54:06;6.50;99.90
24800;DHT22;12897;50.812;4.430;2022-12-07T01:56:34;6.40;99.90
24800;DHT22;12897;50.812;4.430;2022-12-07T01:59:03;6.30;99.90
24800;DHT22;12897;50.812;4.430;2022-12-07T02:01:31;6.30;99.90
24800;DHT22;12897;50.812;4.430;2022-12-07T02:03:59;6.30;99.90
24800;DHT22;12897;50.812;4.430;2022-12-07T02:06:26;6.30;99.90
24800;DHT22;12897;50.812;4.430;2022-12-07T02:08:54;6.40;99.90
24800;DHT22;12897;50.812;4.430;2022-12-07T02:11:23;6.40;99.90
24800;DHT22;12897;50.812;4.430;2022-12-07T02:13:51;6.40;99.90
24800;DHT22;12897;50.812;4.430;2022-12-07T02:16:31;6.30;99.90
24800;DHT22;12897;50.812;4.430;2022-12-07T02:22:18;6.50;99.90
24800;DHT22;12897;50.812;4.430;2022-12-07T02:25:01;6.40;99.90
24800;DHT22;12897;50.812;4.430;2022-12-07T02:30:08;6.60;99.90
24800;DHT22;12897;50.812;4.430;2022-12-07T02:32:48;6.70;99.90
24800;DHT22;12897;50.812;4.430;2022-12-07T02:35:18;6.60;99.90
24800;DHT22;12897;50.812;4.430;2022-12-07T02:38:05;6.60;99.90
24800;DHT22;12897;50.812;4.430;2022-12-07T02:45:45;6.60;99.90
24800;DHT22;12897;50.812;4.430;2022-12-07T02:48:16;6.60;99.90
24800;DHT22;12897;50.812;4.430;2022-12-07T02:50:51;6.60;99.90
24800;DHT22;12897;50.812;4.430;2022-12-07T02:53:37;6.80;99.90
24800;DHT22;12897;50.812;4.430;2022-12-07T02:56:47;6.90;99.90
24800;DHT22;12897;50.812;4.430;2022-12-07T03:01:30;7.00;99.90
24800;DHT22;12897;50.812;4.430;2022-12-07T03:04:24;6.90;99.90
24800;DHT22;12897;50.812;4.430;2022-12-07T03:07:05;6.70;99.90
24800;DHT22;12897;50.812;4.430;2022-12-07T03:09:35;6.50;99.90
24800;DHT22;12897;50.812;4.430;2022-12-07T03:12:14;6.40;99.90
24800;DHT22;12897;50.812;4.430;2022-12-07T03:14:45;6.40;99.90
24800;DHT22;12897;50.812;4.430;2022-12-07T03:17:17;6.30;99.90
24800;DHT22;12897;50.812;4.430;2022-12-07T03:19:46;6.20;99.90
24800;DHT22;12897;50.812;4.430;2022-12-07T03:22:17;6.10;99.90
24800;DHT22;12897;50.812;4.430;2022-12-07T03:24:53;6.10;99.90
24800;DHT22;12897;50.812;4.430;2022-12-07T03:27:31;6.20;99.90
24800;DHT22;12897;50.812;4.430;2022-12-07T03:30:02;6.00;99.90
24800;DHT22;12897;50.812;4.430;2022-12-07T03:32:34;6.20;99.90
24800;DHT22;12897;50.812;4.430;2022-12-07T03:35:13;6.20;99.90
24800;DHT22;12897;50.812;4.430;2022-12-07T03:40:35;6.00;99.90
24800;DHT22;12897;50.812;4.430;2022-12-07T03:43:04;6.00;99.90
24800;DHT22;12897;50.812;4.430;2022-12-07T03:45:48;6.00;99.90
24800;DHT22;12897;50.812;4.430;2022-12-07T03:48:32;6.10;99.90
24800;DHT22;12897;50.812;4.430;2022-12-07T03:53:39;5.80;99.90
24800;DHT22;12897;50.812;4.430;2022-12-07T03:56:09;5.70;99.90
24800;DHT22;12897;50.812;4.430;2022-12-07T03:58:38;5.80;99.90
24800;DHT22;12897;50.812;4.430;2022-12-07T04:01:07;5.80;99.90
24800;DHT22;12897;50.812;4.430;2022-12-07T04:03:34;5.70;99.90
24800;DHT22;12897;50.812;4.430;2022-12-07T04:06:02;5.70;99.90
24800;DHT22;12897;50.812;4.430;2022-12-07T04:08:29;5.60;99.90
24800;DHT22;12897;50.812;4.430;2022-12-07T04:10:57;5.50;99.90
24800;DHT22;12897;50.812;4.430;2022-12-07T04:13:24;5.60;99.90
24800;DHT22;12897;50.812;4.430;2022-12-07T04:15:52;5.60;99.90
24800;DHT22;12897;50.812;4.430;2022-12-07T04:18:19;5.40;99.90
24800;DHT22;12897;50.812;4.430;2022-12-07T04:20:47;5.60;99.90
24800;DHT22;12897;50.812;4.430;2022-12-07T04:23:15;5.40;99.90
24800;DHT22;12897;50.812;4.430;2022-12-07T04:25:42;5.40;99.90
24800;DHT22;12897;50.812;4.430;2022-12-07T04:28:10;5.30;99.90
24800;DHT22;12897;50.812;4.430;2022-12-07T04:30:38;5.30;99.90
24800;DHT22;12897;50.812;4.430;2022-12-07T04:33:07;5.20;99.90
24800;DHT22;12897;50.812;4.430;2022-12-07T04:35:35;5.20;99.90
24800;DHT22;12897;50.812;4.430;2022-12-07T04:38:02;5.20;99.90
24800;DHT22;12897;50.812;4.430;2022-12-07T04:40:30;5.30;99.90
24800;DHT22;12897;50.812;4.430;2022-12-07T04:42:57;5.30;99.90
24800;DHT22;12897;50.812;4.430;2022-12-07T04:45:25;5.30;99.90
24800;DHT22;12897;50.812;4.430;2022-12-07T04:47:52;5.40;99.90
24800;DHT22;12897;50.812;4.430;2022-12-07T04:50:20;5.60;99.90
24800;DHT22;12897;50.812;4.430;2022-12-07T04:52:47;5.60;99.90
24800;DHT22;12897;50.812;4.430;2022-12-07T04:55:15;5.60;99.90
24800;DHT22;12897;50.812;4.430;2022-12-07T04:57:42;5.80;99.90
24800;DHT22;12897;50.812;4.430;2022-12-07T05:00:10;5.80;99.90
24800;DHT22;12897;50.812;4.430;2022-12-07T05:02:38;5.80;99.90
24800;DHT22;12897;50.812;4.430;2022-12-07T05:05:08;5.80;99.90
24800;DHT22;12897;50.812;4.430;2022-12-07T05:07:37;5.90;99.90
24800;DHT22;12897;50.812;4.430;2022-12-07T05:10:07;6.00;99.90
24800;DHT22;12897;50.812;4.430;2022-12-07T05:12:34;5.90;99.90
24800;DHT22;12897;50.812;4.430;2022-12-07T05:15:08;5.60;99.90
24800;DHT22;12897;50.812;4.430;2022-12-07T05:17:34;5.70;99.90
24800;DHT22;12897;50.812;4.430;2022-12-07T05:20:01;5.70;99.90
24800;DHT22;12897;50.812;4.430;2022-12-07T05:22:32;5.90;99.90
24800;DHT22;12897;50.812;4.430;2022-12-07T05:25:00;5.90;99.90
24800;DHT22;12897;50.812;4.430;2022-12-07T05:27:27;5.80;99.90
24800;DHT22;12897;50.812;4.430;2022-12-07T05:29:55;5.90;99.90
24800;DHT22;12897;50.812;4.430;2022-12-07T05:32:23;5.90;99.90
24800;DHT22;12897;50.812;4.430;2022-12-07T05:34:50;5.80;99.90
24800;DHT22;12897;50.812;4.430;2022-12-07T05:37:18;5.80;99.90
24800;DHT22;12897;50.812;4.430;2022-12-07T05:39:45;6.00;99.90
24800;DHT22;12897;50.812;4.430;2022-12-07T05:42:13;6.40;99.90
24800;DHT22;12897;50.812;4.430;2022-12-07T05:44:45;6.50;99.90
24800;DHT22;12897;50.812;4.430;2022-12-07T05:47:10;6.40;99.90
24800;DHT22;12897;50.812;4.430;2022-12-07T05:49:38;6.30;99.90
24800;DHT22;12897;50.812;4.430;2022-12-07T05:52:06;6.30;99.90
24800;DHT22;12897;50.812;4.430;2022-12-07T05:54:34;6.20;99.90
24800;DHT22;12897;50.812;4.430;2022-12-07T05:57:01;6.00;99.90
24800;DHT22;12897;50.812;4.430;2022-12-07T05:59:29;6.00;99.90
24800;DHT22;12897;50.812;4.430;2022-12-07T06:02:02;5.90;99.90
24800;DHT22;12897;50.812;4.430;2022-12-07T06:04:32;6.00;99.90
24800;DHT22;12897;50.812;4.430;2022-12-07T06:06:59;6.10;99.90
24800;DHT22;12897;50.812;4.430;2022-12-07T06:09:27;6.10;99.90
24800;DHT22;12897;50.812;4.430;2022-12-07T06:11:56;6.20;99.90
24800;DHT22;12897;50.812;4.430;2022-12-07T06:14:42;6.20;99.90
24800;DHT22;12897;50.812;4.430;2022-12-07T06:17:10;6.10;99.90
24800;DHT22;12897;50.812;4.430;2022-12-07T06:19:39;6.10;99.90
24800;DHT22;12897;50.812;4.430;2022-12-07T06:22:06;6.10;99.90
24800;DHT22;12897;50.812;4.430;2022-12-07T06:24:35;6.10;99.90
24800;DHT22;12897;50.812;4.430;2022-12-07T06:27:03;6.00;99.90
24800;DHT22;12897;50.812;4.430;2022-12-07T06:29:31;6.00;99.90
24800;DHT22;12897;50.812;4.430;2022-12-07T06:31:59;6.20;99.90
24800;DHT22;12897;50.812;4.430;2022-12-07T06:34:27;6.20;99.90
24800;DHT22;12897;50.812;4.430;2022-12-07T06:36:54;6.20;99.90
24800;DHT22;12897;50.812;4.430;2022-12-07T06:39:24;6.30;99.90
24800;DHT22;12897;50.812;4.430;2022-12-07T06:41:53;6.40;99.90
24800;DHT22;12897;50.812;4.430;2022-12-07T06:44:21;6.10;99.90
24800;DHT22;12897;50.812;4.430;2022-12-07T06:46:50;5.90;99.90
24800;DHT22;12897;50.812;4.430;2022-12-07T06:49:18;5.90;99.90
24800;DHT22;12897;50.812;4.430;2022-12-07T06:51:46;6.00;99.90
24800;DHT22;12897;50.812;4.430;2022-12-07T06:54:14;6.00;99.90
24800;DHT22;12897;50.812;4.430;2022-12-07T06:56:43;6.00;99.90
24800;DHT22;12897;50.812;4.430;2022-12-07T06:59:10;6.20;99.90
24800;DHT22;12897;50.812;4.430;2022-12-07T07:01:38;6.20;99.90
24800;DHT22;12897;50.812;4.430;2022-12-07T07:04:05;6.10;99.90
24800;DHT22;12897;50.812;4.430;2022-12-07T07:06:33;6.20;99.90
24800;DHT22;12897;50.812;4.430;2022-12-07T07:09:00;6.30;99.90
24800;DHT22;12897;50.812;4.430;2022-12-07T07:11:28;6.40;99.90
24800;DHT22;12897;50.812;4.430;2022-12-07T07:13:55;6.40;99.90
24800;DHT22;12897;50.812;4.430;2022-12-07T07:16:25;6.40;99.90
24800;DHT22;12897;50.812;4.430;2022-12-07T07:18:52;6.40;99.90
24800;DHT22;12897;50.812;4.430;2022-12-07T07:21:20;6.50;99.90
24800;DHT22;12897;50.812;4.430;2022-12-07T07:23:48;6.40;99.90
24800;DHT22;12897;50.812;4.430;2022-12-07T07:26:17;6.40;99.90
24800;DHT22;12897;50.812;4.430;2022-12-07T07:28:44;6.30;99.90
24800;DHT22;12897;50.812;4.430;2022-12-07T07:31:12;6.20;99.90
24800;DHT22;12897;50.812;4.430;2022-12-07T07:33:39;6.20;99.90
24800;DHT22;12897;50.812;4.430;2022-12-07T07:36:07;6.20;99.90
24800;DHT22;12897;50.812;4.430;2022-12-07T07:38:35;6.20;99.90
24800;DHT22;12897;50.812;4.430;2022-12-07T07:41:02;6.10;99.90
24800;DHT22;12897;50.812;4.430;2022-12-07T07:43:30;6.10;99.90
24800;DHT22;12897;50.812;4.430;2022-12-07T07:45:57;6.20;99.90
24800;DHT22;12897;50.812;4.430;2022-12-07T07:48:25;6.20;99.90
24800;DHT22;12897;50.812;4.430;2022-12-07T07:50:52;6.20;99.90
24800;DHT22;12897;50.812;4.430;2022-12-07T07:53:20;6.20;99.90
24800;DHT22;12897;50.812;4.430;2022-12-07T07:55:54;6.10;99.90
24800;DHT22;12897;50.812;4.430;2022-12-07T07:58:22;6.00;99.90
24800;DHT22;12897;50.812;4.430;2022-12-07T08:00:50;6.00;99.90
24800;DHT22;12897;50.812;4.430;2022-12-07T08:03:17;6.10;99.90
24800;DHT22;12897;50.812;4.430;2022-12-07T08:05:45;6.00;99.90
24800;DHT22;12897;50.812;4.430;2022-12-07T08:08:13;6.40;99.90
24800;DHT22;12897;50.812;4.430;2022-12-07T08:10:40;6.40;99.90
24800;DHT22;12897;50.812;4.430;2022-12-07T08:13:08;6.30;99.90
24800;DHT22;12897;50.812;4.430;2022-12-07T08:15:43;6.00;99.90
24800;DHT22;12897;50.812;4.430;2022-12-07T08:18:14;5.80;99.90
24800;DHT22;12897;50.812;4.430;2022-12-07T08:20:42;5.80;99.90
24800;DHT22;12897;50.812;4.430;2022-12-07T08:23:11;5.80;99.90
24800;DHT22;12897;50.812;4.430;2022-12-07T08:25:41;5.80;99.90
24800;DHT22;12897;50.812;4.430;2022-12-07T08:28:08;5.80;99.90
24800;DHT22;12897;50.812;4.430;2022-12-07T08:30:35;5.80;99.90
24800;DHT22;12897;50.812;4.430;2022-12-07T08:33:03;5.70;99.90
24800;DHT22;12897;50.812;4.430;2022-12-07T08:35:33;5.70;99.90
24800;DHT22;12897;50.812;4.430;2022-12-07T08:38:01;5.70;99.90
24800;DHT22;12897;50.812;4.430;2022-12-07T08:40:29;5.70;99.90
24800;DHT22;12897;50.812;4.430;2022-12-07T08:42:58;5.90;99.90
24800;DHT22;12897;50.812;4.430;2022-12-07T08:45:29;5.90;99.90
24800;DHT22;12897;50.812;4.430;2022-12-07T08:47:59;5.90;99.90
24800;DHT22;12897;50.812;4.430;2022-12-07T08:50:27;6.00;99.90
24800;DHT22;12897;50.812;4.430;2022-12-07T08:52:56;6.00;99.90
24800;DHT22;12897;50.812;4.430;2022-12-07T08:55:25;6.00;99.90
24800;DHT22;12897;50.812;4.430;2022-12-07T08:57:53;6.00;99.90
24800;DHT22;12897;50.812;4.430;2022-12-07T09:00:21;6.00;99.90
24800;DHT22;12897;50.812;4.430;2022-12-07T09:02:55;6.10;99.90
24800;DHT22;12897;50.812;4.430;2022-12-07T09:05:20;6.30;99.90
24800;DHT22;12897;50.812;4.430;2022-12-07T09:07:50;6.40;99.90
24800;DHT22;12897;50.812;4.430;2022-12-07T09:10:18;6.60;99.90
24800;DHT22;12897;50.812;4.430;2022-12-07T09:12:46;6.80;99.90
24800;DHT22;12897;50.812;4.430;2022-12-07T09:15:13;7.00;99.90
24800;DHT22;12897;50.812;4.430;2022-12-07T09:17:41;7.10;99.90
24800;DHT22;12897;50.812;4.430;2022-12-07T09:20:09;7.10;99.90
24800;DHT22;12897;50.812;4.430;2022-12-07T09:22:36;7.20;99.90
24800;DHT22;12897;50.812;4.430;2022-12-07T09:25:04;7.30;99.90
24800;DHT22;12897;50.812;4.430;2022-12-07T09:27:32;7.50;99.90
24800;DHT22;12897;50.812;4.430;2022-12-07T09:30:05;7.60;99.90
24800;DHT22;12897;50.812;4.430;2022-12-07T09:32:31;7.60;99.90
24800;DHT22;12897;50.812;4.430;2022-12-07T09:35:00;7.70;99.90
24800;DHT22;12897;50.812;4.430;2022-12-07T09:37:28;7.80;99.90
24800;DHT22;12897;50.812;4.430;2022-12-07T09:39:55;7.90;99.90
24800;DHT22;12897;50.812;4.430;2022-12-07T09:42:39;8.10;99.90
24800;DHT22;12897;50.812;4.430;2022-12-07T09:45:15;8.10;99.90
24800;DHT22;12897;50.812;4.430;2022-12-07T09:47:44;7.90;99.90
24800;DHT22;12897;50.812;4.430;2022-12-07T09:50:20;7.80;99.90
24800;DHT22;12897;50.812;4.430;2022-12-07T09:52:49;7.80;99.90
24800;DHT22;12897;50.812;4.430;2022-12-07T09:55:25;7.70;99.90
24800;DHT22;12897;50.812;4.430;2022-12-07T09:57:54;7.80;99.90
24800;DHT22;12897;50.812;4.430;2022-12-07T10:00:23;7.80;99.90
24800;DHT22;12897;50.812;4.430;2022-12-07T10:02:55;7.70;99.90
24800;DHT22;12897;50.812;4.430;2022-12-07T10:05:28;7.60;99.90
24800;DHT22;12897;50.812;4.430;2022-12-07T10:07:59;7.60;99.90
24800;DHT22;12897;50.812;4.430;2022-12-07T10:10:32;7.50;99.90
24800;DHT22;12897;50.812;4.430;2022-12-07T10:13:03;7.60;99.90
24800;DHT22;12897;50.812;4.430;2022-12-07T10:15:49;7.80;99.90
24800;DHT22;12897;50.812;4.430;2022-12-07T10:21:12;8.10;99.90
24800;DHT22;12897;50.812;4.430;2022-12-07T10:24:01;8.10;99.90
24800;DHT22;12897;50.812;4.430;2022-12-07T10:26:38;8.00;99.90
24800;DHT22;12897;50.812;4.430;2022-12-07T10:29:19;8.00;99.90
24800;DHT22;12897;50.812;4.430;2022-12-07T10:31:53;7.90;99.90
24800;DHT22;12897;50.812;4.430;2022-12-07T10:34:26;7.90;99.90
24800;DHT22;12897;50.812;4.430;2022-12-07T10:42:19;7.70;99.90
24800;DHT22;12897;50.812;4.430;2022-12-07T10:50:41;7.90;99.90
24800;DHT22;12897;50.812;4.430;2022-12-07T11:01:38;7.90;99.90
24800;DHT22;12897;50.812;4.430;2022-12-07T11:04:24;7.80;99.90
24800;DHT22;12897;50.812;4.430;2022-12-07T11:07:11;7.80;99.90
24800;DHT22;12897;50.812;4.430;2022-12-07T11:18:04;8.00;99.90
24800;DHT22;12897;50.812;4.430;2022-12-07T11:35:05;7.60;99.90
24800;DHT22;12897;50.812;4.430;2022-12-07T11:37:36;7.50;99.90
24800;DHT22;12897;50.812;4.430;2022-12-07T11:40:28;7.30;99.90
24800;DHT22;12897;50.812;4.430;2022-12-07T11:43:04;7.40;99.90
24800;DHT22;12897;50.812;4.430;2022-12-07T11:45:33;7.40;99.90
24800;DHT22;12897;50.812;4.430;2022-12-07T11:48:04;7.30;99.90
24800;DHT22;12897;50.812;4.430;2022-12-07T11:50:38;7.40;99.90
24800;DHT22;12897;50.812;4.430;2022-12-07T11:53:26;7.40;99.90
24800;DHT22;12897;50.812;4.430;2022-12-07T11:56:12;7.50;99.90
24800;DHT22;12897;50.812;4.430;2022-12-07T12:04:40;7.40;99.90
24800;DHT22;12897;50.812;4.430;2022-12-07T12:06:43;7.40;99.90
24800;DHT22;12897;50.812;4.430;2022-12-07T12:09:24;7.40;99.90
24800;DHT22;12897;50.812;4.430;2022-12-07T12:12:14;7.30;99.90
24800;DHT22;12897;50.812;4.430;2022-12-07T12:14:58;7.30;99.90
24800;DHT22;12897;50.812;4.430;2022-12-07T12:20:31;7.40;99.90
24800;DHT22;12897;50.812;4.430;2022-12-07T12:25:35;7.50;99.90
24800;DHT22;12897;50.812;4.430;2022-12-07T12:28:00;7.50;99.90
24800;DHT22;12897;50.812;4.430;2022-12-07T12:30:31;7.50;99.90
24800;DHT22;12897;50.812;4.430;2022-12-07T12:33:04;7.50;99.90
24800;DHT22;12897;50.812;4.430;2022-12-07T12:35:36;7.50;99.90
24800;DHT22;12897;50.812;4.430;2022-12-07T12:38:31;7.40;99.90
24800;DHT22;12897;50.812;4.430;2022-12-07T12:41:01;7.30;99.90
24800;DHT22;12897;50.812;4.430;2022-12-07T12:43:49;7.30;99.90
24800;DHT22;12897;50.812;4.430;2022-12-07T12:54:22;7.30;99.90
24800;DHT22;12897;50.812;4.430;2022-12-07T12:57:13;7.40;99.90
24800;DHT22;12897;50.812;4.430;2022-12-07T13:02:26;7.50;99.90
24800;DHT22;12897;50.812;4.430;2022-12-07T13:07:52;7.60;99.90
24800;DHT22;12897;50.812;4.430;2022-12-07T13:10:32;7.80;99.90
24800;DHT22;12897;50.812;4.430;2022-12-07T13:15:54;8.20;99.90
24800;DHT22;12897;50.812;4.430;2022-12-07T13:23:39;8.20;99.90
24800;DHT22;12897;50.812;4.430;2022-12-07T13:29:10;8.00;99.90
24800;DHT22;12897;50.812;4.430;2022-12-07T13:31:39;8.00;99.90
24800;DHT22;12897;50.812;4.430;2022-12-07T13:34:35;8.00;99.90
24800;DHT22;12897;50.812;4.430;2022-12-07T13:37:12;8.10;99.90
24800;DHT22;12897;50.812;4.430;2022-12-07T13:39:53;8.20;99.90
24800;DHT22;12897;50.812;4.430;2022-12-07T13:42:29;8.30;99.90
24800;DHT22;12897;50.812;4.430;2022-12-07T13:45:00;8.30;99.90
24800;DHT22;12897;50.812;4.430;2022-12-07T13:47:41;8.30;99.90
24800;DHT22;12897;50.812;4.430;2022-12-07T13:52:50;8.20;99.90
24800;DHT22;12897;50.812;4.430;2022-12-07T13:55:17;8.10;99.90
24800;DHT22;12897;50.812;4.430;2022-12-07T13:57:47;8.00;99.90
24800;DHT22;12897;50.812;4.430;2022-12-07T14:00:21;7.90;99.90
24800;DHT22;12897;50.812;4.430;2022-12-07T14:03:01;8.00;99.90
24800;DHT22;12897;50.812;4.430;2022-12-07T14:05:34;8.00;99.90
24800;DHT22;12897;50.812;4.430;2022-12-07T14:08:04;8.10;99.90
24800;DHT22;12897;50.812;4.430;2022-12-07T14:10:40;8.10;99.90
24800;DHT22;12897;50.812;4.430;2022-12-07T14:13:37;8.10;99.90
24800;DHT22;12897;50.812;4.430;2022-12-07T14:18:55;8.00;99.90
24800;DHT22;12897;50.812;4.430;2022-12-07T14:21:25;7.90;99.90
24800;DHT22;12897;50.812;4.430;2022-12-07T14:24:12;7.70;99.90
24800;DHT22;12897;50.812;4.430;2022-12-07T14:26:39;7.70;99.90
24800;DHT22;12897;50.812;4.430;2022-12-07T14:31:56;7.40;99.90
24800;DHT22;12897;50.812;4.430;2022-12-07T14:34:24;7.40;99.90
24800;DHT22;12897;50.812;4.430;2022-12-07T14:36:52;7.30;99.90
24800;DHT22;12897;50.812;4.430;2022-12-07T14:39:20;7.20;99.90
24800;DHT22;12897;50.812;4.430;2022-12-07T14:41:47;7.20;99.90
24800;DHT22;12897;50.812;4.430;2022-12-07T14:44:19;7.20;99.90
24800;DHT22;12897;50.812;4.430;2022-12-07T14:46:48;7.30;99.90
24800;DHT22;12897;50.812;4.430;2022-12-07T14:49:16;7.30;99.90
24800;DHT22;12897;50.812;4.430;2022-12-07T14:51:44;7.40;99.90
24800;DHT22;12897;50.812;4.430;2022-12-07T14:54:20;7.40;99.90
24800;DHT22;12897;50.812;4.430;2022-12-07T14:56:45;7.40;99.90
24800;DHT22;12897;50.812;4.430;2022-12-07T14:59:16;7.40;99.90
24800;DHT22;12897;50.812;4.430;2022-12-07T15:01:43;7.50;99.90
24800;DHT22;12897;50.812;4.430;2022-12-07T15:04:11;7.50;99.90
24800;DHT22;12897;50.812;4.430;2022-12-07T15:06:39;7.40;99.90
24800;DHT22;12897;50.812;4.430;2022-12-07T15:09:10;7.30;99.90
24800;DHT22;12897;50.812;4.430;2022-12-07T15:11:38;7.30;99.90
24800;DHT22;12897;50.812;4.430;2022-12-07T15:14:05;7.20;99.90
24800;DHT22;12897;50.812;4.430;2022-12-07T15:16:39;7.10;99.90
24800;DHT22;12897;50.812;4.430;2022-12-07T15:19:14;7.20;99.90
24800;DHT22;12897;50.812;4.430;2022-12-07T15:21:39;7.30;99.90
24800;DHT22;12897;50.812;4.430;2022-12-07T15:24:08;7.30;99.90
24800;DHT22;12897;50.812;4.430;2022-12-07T15:26:35;7.30;99.90
24800;DHT22;12897;50.812;4.430;2022-12-07T15:29:03;7.50;99.90
24800;DHT22;12897;50.812;4.430;2022-12-07T15:31:31;7.60;99.90
24800;DHT22;12897;50.812;4.430;2022-12-07T15:33:59;7.50;99.90
24800;DHT22;12897;50.812;4.430;2022-12-07T15:36:29;7.50;99.90
24800;DHT22;12897;50.812;4.430;2022-12-07T15:38:57;7.60;99.90
24800;DHT22;12897;50.812;4.430;2022-12-07T15:41:25;7.60;99.90
24800;DHT22;12897;50.812;4.430;2022-12-07T15:43:52;7.50;99.90
24800;DHT22;12897;50.812;4.430;2022-12-07T15:46:40;7.50;99.90
24800;DHT22;12897;50.812;4.430;2022-12-07T15:49:12;7.40;99.90
24800;DHT22;12897;50.812;4.430;2022-12-07T15:51:36;7.50;99.90
24800;DHT22;12897;50.812;4.430;2022-12-07T15:54:04;7.40;99.90
24800;DHT22;12897;50.812;4.430;2022-12-07T15:56:32;7.30;99.90
24800;DHT22;12897;50.812;4.430;2022-12-07T15:58:59;7.30;99.90
24800;DHT22;12897;50.812;4.430;2022-12-07T16:01:27;7.30;99.90
24800;DHT22;12897;50.812;4.430;2022-12-07T16:03:54;7.30;99.90
24800;DHT22;12897;50.812;4.430;2022-12-07T16:06:25;7.30;99.90
24800;DHT22;12897;50.812;4.430;2022-12-07T16:08:53;7.30;99.90
24800;DHT22;12897;50.812;4.430;2022-12-07T16:11:21;7.30;99.90
24800;DHT22;12897;50.812;4.430;2022-12-07T16:13:49;7.20;99.90
24800;DHT22;12897;50.812;4.430;2022-12-07T16:16:18;7.30;99.90
24800;DHT22;12897;50.812;4.430;2022-12-07T16:18:49;7.20;99.90
24800;DHT22;12897;50.812;4.430;2022-12-07T16:21:17;7.20;99.90
24800;DHT22;12897;50.812;4.430;2022-12-07T16:23:45;7.20;99.90
24800;DHT22;12897;50.812;4.430;2022-12-07T16:26:15;7.30;99.90
24800;DHT22;12897;50.812;4.430;2022-12-07T16:28:43;7.30;99.90
24800;DHT22;12897;50.812;4.430;2022-12-07T16:31:14;7.30;99.90
24800;DHT22;12897;50.812;4.430;2022-12-07T16:33:42;7.30;99.90
24800;DHT22;12897;50.812;4.430;2022-12-07T16:36:11;7.30;99.90
24800;DHT22;12897;50.812;4.430;2022-12-07T16:38:40;7.30;99.90
24800;DHT22;12897;50.812;4.430;2022-12-07T16:41:08;7.10;99.90
24800;DHT22;12897;50.812;4.430;2022-12-07T16:43:37;7.10;99.90
24800;DHT22;12897;50.812;4.430;2022-12-07T16:46:04;7.00;99.90
24800;DHT22;12897;50.812;4.430;2022-12-07T16:48:37;7.00;99.90
24800;DHT22;12897;50.812;4.430;2022-12-07T16:51:07;7.00;99.90
24800;DHT22;12897;50.812;4.430;2022-12-07T16:53:40;7.10;99.90
24800;DHT22;12897;50.812;4.430;2022-12-07T16:56:12;7.00;99.90
24800;DHT22;12897;50.812;4.430;2022-12-07T16:58:42;7.00;99.90
24800;DHT22;12897;50.812;4.430;2022-12-07T17:01:16;7.00;99.90
24800;DHT22;12897;50.812;4.430;2022-12-07T17:03:40;7.10;99.90
24800;DHT22;12897;50.812;4.430;2022-12-07T17:06:27;7.00;99.90
24800;DHT22;12897;50.812;4.430;2022-12-07T17:08:56;7.10;99.90
24800;DHT22;12897;50.812;4.430;2022-12-07T17:11:23;7.10;99.90
24800;DHT22;12897;50.812;4.430;2022-12-07T17:13:51;7.20;99.90
24800;DHT22;12897;50.812;4.430;2022-12-07T17:16:37;7.30;99.90
24800;DHT22;12897;50.812;4.430;2022-12-07T17:19:07;7.20;99.90
24800;DHT22;12897;50.812;4.430;2022-12-07T17:21:36;7.20;99.90
24800;DHT22;12897;50.812;4.430;2022-12-07T17:24:05;7.30;99.90
24800;DHT22;12897;50.812;4.430;2022-12-07T17:26:33;7.30;99.90
24800;DHT22;12897;50.812;4.430;2022-12-07T17:29:02;7.40;99.90
24800;DHT22;12897;50.812;4.430;2022-12-07T17:31:30;7.50;99.90
24800;DHT22;12897;50.812;4.430;2022-12-07T17:33:58;7.60;99.90
24800;DHT22;12897;50.812;4.430;2022-12-07T17:36:28;7.60;99.90
24800;DHT22;12897;50.812;4.430;2022-12-07T17:38:57;7.50;99.90
24800;DHT22;12897;50.812;4.430;2022-12-07T17:41:26;7.60;99.90
24800;DHT22;12897;50.812;4.430;2022-12-07T17:44:15;7.40;99.90
24800;DHT22;12897;50.812;4.430;2022-12-07T17:46:44;7.50;99.90
24800;DHT22;12897;50.812;4.430;2022-12-07T17:49:11;7.50;99.90
24800;DHT22;12897;50.812;4.430;2022-12-07T17:51:39;7.50;99.90
24800;DHT22;12897;50.812;4.430;2022-12-07T17:54:25;7.50;99.90
24800;DHT22;12897;50.812;4.430;2022-12-07T17:56:55;7.50;99.90